createdAt,value
2023-04-17T00:01:47.778Z,30.02
2023-04-17T00:04:14.976Z,27.55
2023-04-17T00:06:43.799Z,34.97
2023-04-17T00:09:14.498Z,31.35
2023-04-17T00:11:41.637Z,27.63
2023-04-17T00:14:08.525Z,28.95
2023-04-17T00:16:35.506Z,31.08
2023-04-17T00:19:02.390Z,31.87
2023-04-17T00:21:32.420Z,30.80
2023-04-17T00:23:59.420Z,33.55
2023-04-17T00:26:26.702Z,30.73
2023-04-17T00:28:53.618Z,34.25
2023-04-17T00:31:20.737Z,30.07
2023-04-17T00:33:47.673Z,31.90
2023-04-17T00:36:15.547Z,33.05
2023-04-17T00:38:42.476Z,29.42
2023-04-17T00:41:09.480Z,32.75
2023-04-17T00:43:36.740Z,28.40
2023-04-17T00:46:05.759Z,31.88
2023-04-17T00:48:34.487Z,32.50
2023-04-17T00:51:03.236Z,30.52
2023-04-17T00:53:31.637Z,34.25
2023-04-17T00:56:00.680Z,33.03
2023-04-17T00:58:27.768Z,35.55
2023-04-17T01:00:55.070Z,36.70
2023-04-17T01:03:23.179Z,38.33
2023-04-17T01:05:51.987Z,31.88
2023-04-17T01:08:19.606Z,36.27
2023-04-17T01:10:47.631Z,33.80
2023-04-17T01:13:14.488Z,30.92
2023-04-17T01:15:43.032Z,38.28
2023-04-17T01:18:10.286Z,33.92
2023-04-17T01:20:37.726Z,32.20
2023-04-17T01:23:05.029Z,30.45
2023-04-17T01:25:32.003Z,29.38
2023-04-17T01:27:59.055Z,29.70
2023-04-17T01:30:27.966Z,32.25
2023-04-17T01:33:02.620Z,24.47
2023-04-17T01:35:29.994Z,30.20
2023-04-17T01:37:57.159Z,29.10
2023-04-17T01:40:23.952Z,23.67
2023-04-17T01:42:51.525Z,27.10
2023-04-17T01:45:18.583Z,26.00
2023-04-17T01:47:45.699Z,28.92
2023-04-17T01:50:13.039Z,25.90
2023-04-17T01:52:40.054Z,33.53
2023-04-17T01:55:07.246Z,29.25
2023-04-17T01:57:34.176Z,31.70
2023-04-17T02:00:01.047Z,32.70
2023-04-17T02:02:27.959Z,30.20
2023-04-17T02:04:54.877Z,24.40
2023-04-17T02:07:21.915Z,26.75
2023-04-17T02:09:48.851Z,25.90
2023-04-17T02:12:16.409Z,23.20
2023-04-17T02:14:43.328Z,28.70
2023-04-17T02:17:10.520Z,29.48
2023-04-17T02:19:37.443Z,24.98
2023-04-17T02:22:04.491Z,27.70
2023-04-17T02:24:31.808Z,25.35
2023-04-17T02:27:00.795Z,29.40
2023-04-17T02:29:27.720Z,23.77
2023-04-17T02:31:55.075Z,23.20
2023-04-17T02:34:21.899Z,24.20
2023-04-17T02:36:51.728Z,20.35
2023-04-17T02:39:20.840Z,24.38
2023-04-17T02:41:47.628Z,23.58
2023-04-17T02:44:15.386Z,27.05
2023-04-17T02:46:42.326Z,23.47
2023-04-17T02:49:09.600Z,26.20
2023-04-17T02:51:37.491Z,23.65
2023-04-17T02:54:04.596Z,24.92
2023-04-17T02:56:31.659Z,22.52
2023-04-17T02:58:58.712Z,19.40
2023-04-17T03:01:26.349Z,21.83
2023-04-17T03:03:54.160Z,20.02
2023-04-17T03:06:21.916Z,23.08
2023-04-17T03:08:49.013Z,20.38
2023-04-17T03:11:16.040Z,22.83
2023-04-17T03:13:43.986Z,24.67
2023-04-17T03:16:14.118Z,21.65
2023-04-17T03:18:42.349Z,24.95
2023-04-17T03:21:09.313Z,26.02
2023-04-17T03:23:36.337Z,23.83
2023-04-17T03:26:04.001Z,21.50
2023-04-17T03:28:33.181Z,23.27
2023-04-17T03:31:01.326Z,26.30
2023-04-17T03:33:28.387Z,24.15
2023-04-17T03:35:57.963Z,22.03
2023-04-17T03:38:24.847Z,24.60
2023-04-17T03:40:52.674Z,22.63
2023-04-17T03:43:20.876Z,25.40
2023-04-17T03:45:47.744Z,24.83
2023-04-17T03:48:14.525Z,24.77
2023-04-17T03:50:42.152Z,24.65
2023-04-17T03:53:08.990Z,22.88
2023-04-17T03:55:35.813Z,23.60
2023-04-17T03:58:02.981Z,24.73
2023-04-17T04:00:31.879Z,26.33
2023-04-17T04:03:04.562Z,23.60
2023-04-17T04:05:38.291Z,24.70
2023-04-17T04:08:07.780Z,25.77
2023-04-17T04:10:44.178Z,27.52
2023-04-17T04:13:13.686Z,23.53
2023-04-17T04:15:43.423Z,26.80
2023-04-17T04:18:11.353Z,27.42
2023-04-17T04:20:38.396Z,26.17
2023-04-17T04:23:14.038Z,25.52
2023-04-17T04:25:41.767Z,27.60
2023-04-17T04:28:20.123Z,30.52
2023-04-17T04:30:50.609Z,26.70
2023-04-17T04:33:20.655Z,26.35
2023-04-17T04:35:48.889Z,31.55
2023-04-17T04:38:17.745Z,30.67
2023-04-17T04:40:52.708Z,27.33
2023-04-17T04:43:22.312Z,25.80
2023-04-17T04:45:52.689Z,30.48
2023-04-17T04:48:19.519Z,26.30
2023-04-17T04:50:46.518Z,30.87
2023-04-17T04:53:13.500Z,31.67
2023-04-17T04:55:46.575Z,26.27
2023-04-17T04:58:14.179Z,33.10
2023-04-17T05:00:43.587Z,27.13
2023-04-17T05:03:14.347Z,29.30
2023-04-17T05:05:43.256Z,27.17
2023-04-17T05:08:13.844Z,35.13
2023-04-17T05:10:41.163Z,31.15
2023-04-17T05:13:08.514Z,29.40
2023-04-17T05:15:35.473Z,30.40
2023-04-17T05:18:02.789Z,31.63
2023-04-17T05:20:32.986Z,31.30
2023-04-17T05:22:59.953Z,32.65
2023-04-17T05:25:26.973Z,30.77
2023-04-17T05:27:56.026Z,31.47
2023-04-17T05:30:23.040Z,27.90
2023-04-17T05:32:59.203Z,30.83
2023-04-17T05:35:39.907Z,28.42
2023-04-17T05:38:08.151Z,29.52
2023-04-17T05:40:35.542Z,27.83
2023-04-17T05:43:09.980Z,28.92
2023-04-17T05:45:38.314Z,29.75
2023-04-17T05:48:08.561Z,30.63
2023-04-17T05:50:37.398Z,29.77
2023-04-17T05:53:05.757Z,27.70
2023-04-17T05:55:37.822Z,30.20
2023-04-17T05:58:22.527Z,28.75
2023-04-17T06:00:51.789Z,29.35
2023-04-17T06:03:19.891Z,31.38
2023-04-17T06:05:50.393Z,31.03
2023-04-17T06:08:17.315Z,33.13
2023-04-17T06:10:46.036Z,26.77
2023-04-17T06:13:13.537Z,31.48
2023-04-17T06:15:45.299Z,30.67
2023-04-17T06:18:12.123Z,31.10
2023-04-17T06:20:40.277Z,31.17
2023-04-17T06:23:07.161Z,36.08
2023-04-17T06:25:34.110Z,31.08
2023-04-17T06:28:01.562Z,33.80
2023-04-17T06:30:30.000Z,30.73
2023-04-17T06:32:57.859Z,29.67
2023-04-17T06:35:25.232Z,28.65
2023-04-17T06:38:01.948Z,26.15
2023-04-17T06:40:28.798Z,29.27
2023-04-17T06:42:55.712Z,29.90
2023-04-17T06:45:25.010Z,27.88
2023-04-17T06:47:52.197Z,27.48
2023-04-17T06:50:19.467Z,27.85
2023-04-17T06:52:46.392Z,31.58
2023-04-17T06:55:13.199Z,30.87
2023-04-17T06:57:39.966Z,30.35
2023-04-17T07:00:07.691Z,33.13
2023-04-17T07:02:34.802Z,28.73
2023-04-17T07:05:01.856Z,33.42
2023-04-17T07:07:30.752Z,29.43
2023-04-17T07:09:57.626Z,33.58
2023-04-17T07:12:24.599Z,35.58
2023-04-17T07:14:51.545Z,29.67
2023-04-17T07:17:18.932Z,29.23
2023-04-17T07:19:46.060Z,32.83
2023-04-17T07:22:12.842Z,29.38
2023-04-17T07:24:40.461Z,27.88
2023-04-17T07:27:07.801Z,32.42
2023-04-17T07:29:35.475Z,28.30
2023-04-17T07:32:04.103Z,27.90
2023-04-17T07:34:31.776Z,32.45
2023-04-17T07:36:58.617Z,25.67
2023-04-17T07:39:28.518Z,30.17
2023-04-17T07:41:56.277Z,30.52
2023-04-17T07:44:23.166Z,28.63
2023-04-17T07:46:50.191Z,30.42
2023-04-17T07:49:17.596Z,31.90
2023-04-17T07:51:44.803Z,31.75
2023-04-17T07:54:11.604Z,32.03
2023-04-17T07:56:38.566Z,27.80
2023-04-17T07:59:05.371Z,29.70
2023-04-17T08:01:33.891Z,32.25
2023-04-17T08:04:01.431Z,32.92
2023-04-17T08:06:28.714Z,32.55
2023-04-17T08:08:55.666Z,32.23
2023-04-17T08:11:22.659Z,33.90
2023-04-17T08:13:49.932Z,33.97
2023-04-17T08:16:17.136Z,27.58
2023-04-17T08:18:43.993Z,34.03
2023-04-17T08:21:10.820Z,34.43
2023-04-17T08:23:37.755Z,33.03
2023-04-17T08:26:04.978Z,35.72
2023-04-17T08:28:31.847Z,31.88
2023-04-17T08:30:58.798Z,36.55
2023-04-17T08:33:27.104Z,35.77
2023-04-17T08:35:54.071Z,30.27
2023-04-17T08:38:21.468Z,35.17
2023-04-17T08:40:52.109Z,31.67
2023-04-17T08:43:21.129Z,30.67
2023-04-17T08:45:53.901Z,31.53
2023-04-17T08:48:24.652Z,28.40
2023-04-17T08:50:53.789Z,34.38
2023-04-17T08:53:21.371Z,30.17
2023-04-17T08:55:48.845Z,31.77
2023-04-17T08:58:16.034Z,25.57
2023-04-17T09:00:44.903Z,25.92
2023-04-17T09:03:14.247Z,29.48
2023-04-17T09:05:43.800Z,24.15
2023-04-17T09:08:24.333Z,31.58
2023-04-17T09:10:55.962Z,26.73
2023-04-17T09:13:25.572Z,29.52
2023-04-17T09:16:13.800Z,29.10
2023-04-17T09:18:43.146Z,30.65
2023-04-17T09:21:10.531Z,29.55
2023-04-17T09:23:55.518Z,24.40
2023-04-17T09:26:25.444Z,25.73
2023-04-17T09:29:04.495Z,25.08
2023-04-17T09:31:34.453Z,25.65
2023-04-17T09:34:03.008Z,27.00
2023-04-17T09:36:34.903Z,26.43
2023-04-17T09:39:04.473Z,26.77
2023-04-17T09:41:39.327Z,26.50
2023-04-17T09:44:06.613Z,23.00
2023-04-17T09:46:41.384Z,25.77
2023-04-17T09:49:18.697Z,25.87
2023-04-17T09:51:46.527Z,27.75
2023-04-17T09:54:15.408Z,24.58
2023-04-17T09:56:43.289Z,24.40
2023-04-17T09:59:10.379Z,27.63
2023-04-17T10:01:38.429Z,23.83
2023-04-17T10:04:05.918Z,24.70
2023-04-17T10:06:33.827Z,24.55
2023-04-17T10:09:01.129Z,22.70
2023-04-17T10:11:34.281Z,24.50
2023-04-17T10:14:14.000Z,26.77
2023-04-17T10:16:45.341Z,25.27
2023-04-17T10:19:28.723Z,24.77
2023-04-17T10:22:14.227Z,23.65
2023-04-17T10:25:01.494Z,25.58
2023-04-17T10:27:28.324Z,25.40
2023-04-17T10:29:59.840Z,25.65
2023-04-17T10:32:31.034Z,24.27
2023-04-17T10:34:59.736Z,23.25
2023-04-17T10:37:48.293Z,25.00
2023-04-17T10:40:25.822Z,23.10
2023-04-17T10:43:28.895Z,23.70
2023-04-17T10:46:14.893Z,24.92
2023-04-17T10:48:52.947Z,20.73
2023-04-17T10:51:28.896Z,26.33
2023-04-17T10:54:00.865Z,20.73
2023-04-17T10:56:42.431Z,25.48
2023-04-17T10:59:12.222Z,24.63
2023-04-17T11:01:48.554Z,21.88
2023-04-17T11:04:32.132Z,20.58
2023-04-17T11:06:59.714Z,23.07
2023-04-17T11:09:29.566Z,20.17
2023-04-17T11:12:01.888Z,21.80
2023-04-17T11:14:30.487Z,23.38
2023-04-17T11:16:57.643Z,21.83
2023-04-17T11:19:25.976Z,23.07
2023-04-17T11:21:54.686Z,21.85
2023-04-17T11:24:26.816Z,21.95
2023-04-17T11:26:54.533Z,21.63
2023-04-17T11:29:23.327Z,26.10
2023-04-17T11:31:52.296Z,21.87
2023-04-17T11:34:20.450Z,22.67
2023-04-17T11:36:56.455Z,20.95
2023-04-17T11:39:25.738Z,22.20
2023-04-17T11:41:52.908Z,24.70
2023-04-17T11:44:21.166Z,22.53
2023-04-17T11:47:00.934Z,22.48
2023-04-17T11:49:32.999Z,24.58
2023-04-17T11:52:01.840Z,21.23
2023-04-17T11:54:37.431Z,22.30
2023-04-17T11:57:14.493Z,20.60
2023-04-17T11:59:42.482Z,22.35
2023-04-17T12:02:10.115Z,22.92
2023-04-17T12:04:38.311Z,22.45
2023-04-17T12:07:07.346Z,19.85
2023-04-17T13:25:11.400Z,15.68
2023-04-17T13:27:38.530Z,15.35
2023-04-17T13:30:06.224Z,18.33
2023-04-17T13:32:35.027Z,18.50
2023-04-17T13:35:02.935Z,17.27
2023-04-17T13:37:29.765Z,16.60
2023-04-17T13:39:57.506Z,18.40
2023-04-17T13:42:24.489Z,16.23
2023-04-17T13:44:51.398Z,16.30
2023-04-17T13:47:18.538Z,15.30
2023-04-17T13:49:45.525Z,15.77
2023-04-17T13:52:12.332Z,14.95
2023-04-17T13:54:40.502Z,14.82
2023-04-17T13:57:08.172Z,17.87
2023-04-17T13:59:35.190Z,13.48
2023-04-17T14:02:04.486Z,15.13
2023-04-17T14:04:32.009Z,15.40
2023-04-17T14:06:58.928Z,15.60
2023-04-17T14:09:26.964Z,14.35
2023-04-17T14:11:54.123Z,18.42
2023-04-17T14:14:21.207Z,15.25
2023-04-17T14:16:49.867Z,15.98
2023-04-17T14:19:17.593Z,17.50
2023-04-17T14:21:44.766Z,16.67
2023-04-17T14:24:12.043Z,18.50
2023-04-17T14:26:39.225Z,15.05
2023-04-17T14:29:06.306Z,18.10
2023-04-17T14:31:33.334Z,15.38
2023-04-17T14:34:00.795Z,16.23
2023-04-17T14:36:28.255Z,13.82
2023-04-17T14:38:55.511Z,13.43
2023-04-17T14:41:24.136Z,14.43
2023-04-17T14:43:53.062Z,10.48
2023-04-17T14:46:23.103Z,11.80
2023-04-17T14:48:55.682Z,10.43
2023-04-17T14:51:28.043Z,9.80
2023-04-17T14:53:57.657Z,9.00
2023-04-17T14:56:26.768Z,11.23
2023-04-17T14:58:54.753Z,10.60
2023-04-17T15:01:24.694Z,14.90
2023-04-17T15:03:55.935Z,12.25
2023-04-17T15:06:23.817Z,12.55
2023-04-17T15:08:51.451Z,10.18
2023-04-17T15:11:18.707Z,14.15
2023-04-17T15:13:46.001Z,11.35
2023-04-17T15:16:13.806Z,12.88
2023-04-17T15:18:41.526Z,14.10
2023-04-17T15:21:09.137Z,14.98
2023-04-17T15:23:39.374Z,16.87
2023-04-17T15:26:07.387Z,14.55
2023-04-17T15:28:36.717Z,17.83
2023-04-17T15:31:04.000Z,15.10
2023-04-17T15:33:31.757Z,15.98
2023-04-17T15:36:00.071Z,17.23
2023-04-17T15:38:31.284Z,16.80
2023-04-17T15:40:59.318Z,17.90
2023-04-17T15:43:27.145Z,18.50
2023-04-17T15:45:55.638Z,17.45
2023-04-17T15:48:23.171Z,16.08
2023-04-17T15:50:51.047Z,17.92
2023-04-17T15:53:18.769Z,15.02
2023-04-17T15:55:46.459Z,18.58
2023-04-17T15:58:13.964Z,16.98
2023-04-17T16:00:41.042Z,14.82
2023-04-17T16:03:09.290Z,12.43
2023-04-17T16:05:39.165Z,15.40
2023-04-17T16:08:13.797Z,18.13
2023-04-17T16:10:41.870Z,20.17
2023-04-17T16:13:10.016Z,16.60
2023-04-17T16:15:40.963Z,13.98
2023-04-17T16:18:08.882Z,16.30
2023-04-17T16:20:36.238Z,16.98
2023-04-17T16:23:04.046Z,17.23
2023-04-17T16:25:31.782Z,14.90
2023-04-17T16:28:03.599Z,16.45
2023-04-17T16:30:32.631Z,17.42
2023-04-17T16:33:01.414Z,13.93
2023-04-17T16:35:31.936Z,13.82
2023-04-17T16:38:02.051Z,14.90
2023-04-17T16:40:31.330Z,17.80
2023-04-17T16:42:59.713Z,14.98
2023-04-17T16:45:27.108Z,12.73
2023-04-17T16:47:54.543Z,13.63
2023-04-17T16:50:23.762Z,12.57
2023-04-17T16:52:52.904Z,17.00
2023-04-17T16:55:20.527Z,14.82
2023-04-17T16:57:48.297Z,13.35
2023-04-17T17:00:19.631Z,12.85
2023-04-17T17:02:47.286Z,15.47
2023-04-17T17:05:15.864Z,13.10
2023-04-17T17:07:43.885Z,15.63
2023-04-17T17:10:11.238Z,16.10
2023-04-17T17:12:38.422Z,14.02
2023-04-17T17:15:06.726Z,15.25
2023-04-17T17:17:33.583Z,13.25
2023-04-17T17:20:00.976Z,15.38
2023-04-17T17:22:27.794Z,15.13
2023-04-17T17:24:56.222Z,14.82
2023-04-17T17:27:23.185Z,14.73
2023-04-17T17:29:49.969Z,13.88
2023-04-17T17:32:16.871Z,14.38
2023-04-17T17:34:43.976Z,17.65
2023-04-17T17:37:10.947Z,14.60
2023-04-17T17:39:37.828Z,15.37
2023-04-17T17:42:08.733Z,15.35
2023-04-17T17:44:36.146Z,15.95
2023-04-17T17:47:03.816Z,15.15
2023-04-17T17:49:32.025Z,15.90
2023-04-17T17:51:58.979Z,15.00
2023-04-17T17:54:25.998Z,15.10
2023-04-17T17:56:52.862Z,16.67
2023-04-17T17:59:19.729Z,15.05
2023-04-17T18:01:46.689Z,17.25
2023-04-17T18:04:14.256Z,16.63
2023-04-17T18:06:41.672Z,14.63
2023-04-17T18:09:08.472Z,16.90
2023-04-17T18:11:36.332Z,15.25
2023-04-17T18:14:03.126Z,16.13
2023-04-17T18:16:31.846Z,19.73
2023-04-17T18:19:03.694Z,15.38
2023-04-17T18:21:33.980Z,16.50
2023-04-17T18:24:01.901Z,19.35
2023-04-17T18:26:28.943Z,18.90
2023-04-17T18:28:55.722Z,15.60
2023-04-17T18:31:24.728Z,16.90
2023-04-17T18:33:52.712Z,21.40
2023-04-17T18:36:19.565Z,16.27
2023-04-17T18:38:46.373Z,16.92
2023-04-17T18:41:13.467Z,16.27
2023-04-17T18:43:40.390Z,17.38
2023-04-17T18:46:07.889Z,16.65
2023-04-17T18:48:34.976Z,16.63
2023-04-17T18:51:09.621Z,16.25
2023-04-17T18:53:36.649Z,19.50
2023-04-17T18:56:04.018Z,17.33
2023-04-17T18:58:31.106Z,18.67
2023-04-17T19:00:58.003Z,17.55
2023-04-17T19:03:24.997Z,16.30
2023-04-17T19:05:51.812Z,17.80
2023-04-17T19:08:18.771Z,18.17
2023-04-17T19:10:45.603Z,19.73
2023-04-17T19:13:12.495Z,21.45
2023-04-17T19:15:39.646Z,20.85
2023-04-17T19:18:06.801Z,21.30
2023-04-17T19:20:33.945Z,18.95
2023-04-17T19:23:01.839Z,22.38
2023-04-17T19:25:29.062Z,21.48
2023-04-17T19:27:55.959Z,21.17
2023-04-17T19:30:22.842Z,19.77
2023-04-17T19:32:49.790Z,19.48
2023-04-17T19:35:16.644Z,20.30
2023-04-17T19:37:43.492Z,19.45
2023-04-17T19:40:21.314Z,18.10
2023-04-17T19:42:50.894Z,19.53
2023-04-17T19:45:17.934Z,21.25
2023-04-17T19:47:44.758Z,20.00
2023-04-17T19:50:12.144Z,19.60
2023-04-17T19:52:39.941Z,21.17
2023-04-17T19:55:09.898Z,17.63
2023-04-17T19:57:36.671Z,19.40
2023-04-17T20:00:04.180Z,20.55
2023-04-17T20:02:39.885Z,18.33
2023-04-17T20:05:07.619Z,20.20
2023-04-17T20:07:34.627Z,18.43
2023-04-17T20:10:01.884Z,22.42
2023-04-17T20:12:28.766Z,18.83
2023-04-17T20:14:55.602Z,21.40
2023-04-17T20:17:22.453Z,19.13
2023-04-17T20:19:49.224Z,20.27
2023-04-17T20:22:16.295Z,19.80
2023-04-17T20:24:43.066Z,20.58
2023-04-17T20:27:09.806Z,19.70
2023-04-17T20:29:36.642Z,20.75
2023-04-17T20:32:04.080Z,22.00
2023-04-17T20:34:35.153Z,21.52
2023-04-17T20:37:02.164Z,21.52
2023-04-17T20:39:29.257Z,23.40
2023-04-17T20:41:56.494Z,22.52
2023-04-17T20:44:23.407Z,19.83
2023-04-17T20:46:50.503Z,21.17
2023-04-17T20:49:17.430Z,22.38
2023-04-17T20:51:45.061Z,21.73
2023-04-17T20:54:12.233Z,22.70
2023-04-17T20:56:39.382Z,20.77
2023-04-17T20:59:06.398Z,22.35
2023-04-17T21:01:33.307Z,20.35
2023-04-17T21:04:01.030Z,22.02
2023-04-17T21:06:27.967Z,23.15
2023-04-17T21:08:55.243Z,20.97
2023-04-17T21:11:22.101Z,21.40
2023-04-17T21:13:59.499Z,22.27
2023-04-17T21:16:26.876Z,22.80
2023-04-17T21:18:53.643Z,21.13
2023-04-17T21:21:20.432Z,21.70
2023-04-17T21:23:47.191Z,20.23
2023-04-17T21:26:14.076Z,20.58
2023-04-17T21:28:41.093Z,20.77
2023-04-17T21:31:10.162Z,21.30
2023-04-17T21:33:37.264Z,18.63
2023-04-17T21:36:04.238Z,20.20
2023-04-17T21:38:31.040Z,19.08
2023-04-17T21:40:58.229Z,17.77
2023-04-17T21:43:25.172Z,18.80
2023-04-17T21:45:52.082Z,19.53
2023-04-17T21:48:18.881Z,22.20
2023-04-17T21:50:45.728Z,19.90
2023-04-17T21:53:12.686Z,18.77
2023-04-17T21:55:39.551Z,19.40
2023-04-17T21:58:07.008Z,19.63
2023-04-17T22:00:33.977Z,20.67
2023-04-17T22:03:01.063Z,19.08
2023-04-17T22:05:28.047Z,20.35
2023-04-17T22:07:55.600Z,22.45
2023-04-17T22:10:23.646Z,18.67
2023-04-17T22:12:50.992Z,19.83
2023-04-17T22:15:18.055Z,21.17
2023-04-17T22:17:45.082Z,21.30
2023-04-17T22:20:12.479Z,20.75
2023-04-17T22:22:39.352Z,17.70
2023-04-17T22:25:06.481Z,16.60
2023-04-17T22:27:33.252Z,21.60
2023-04-17T22:30:00.566Z,19.90
2023-04-17T22:32:27.667Z,20.40
2023-04-17T22:34:54.550Z,17.87
2023-04-17T22:37:21.638Z,18.33
2023-04-17T22:39:49.621Z,20.30
2023-04-17T22:42:16.480Z,20.58
2023-04-17T22:44:43.220Z,19.88
2023-04-17T22:47:10.006Z,22.10
2023-04-17T22:49:38.138Z,18.45
2023-04-17T22:52:06.199Z,19.25
2023-04-17T22:54:34.308Z,19.70
2023-04-17T22:57:02.340Z,18.45
2023-04-17T22:59:29.963Z,21.10
2023-04-17T23:01:56.851Z,19.83
2023-04-17T23:04:24.338Z,21.27
2023-04-17T23:06:51.295Z,19.40
2023-04-17T23:09:18.240Z,21.30
2023-04-17T23:11:45.134Z,20.70
2023-04-17T23:14:12.314Z,19.98
2023-04-17T23:16:39.294Z,20.35
2023-04-17T23:19:06.139Z,21.98
2023-04-17T23:21:32.971Z,17.15
2023-04-17T23:23:59.846Z,20.97
2023-04-17T23:26:27.012Z,19.42
2023-04-17T23:28:53.900Z,17.67
2023-04-17T23:31:20.863Z,22.20
2023-04-17T23:33:47.703Z,19.23
2023-04-17T23:36:14.494Z,17.77
2023-04-17T23:38:41.394Z,18.98
2023-04-17T23:41:08.172Z,19.08
2023-04-17T23:43:35.098Z,18.50
2023-04-17T23:46:01.932Z,27.42
2023-04-17T23:48:28.787Z,17.93
2023-04-17T23:50:55.850Z,17.08
2023-04-17T23:53:22.843Z,17.92
2023-04-17T23:55:49.713Z,17.70
2023-04-17T23:58:16.558Z,18.02
